Haypoint, Minnesota
Current Conditions -  °F | °C
As of 10:35 AM on Monday 24 Nov 2014 (Local Time) from KGPZ Reporting Station
Overcast Overcast  
Wind Chill: -17°   Ceiling: 1400
Heat Index: -8°   Visibility: 10mi
Dew Point: -11°   Wind: 17mph
Humidity: 79%   Direction: 320°NW
Pressure: 29.43"   Gusts: 26mph
Location:  47.0392°N, 93.6273°W
Report Text: KGPZ 241635Z AUTO 32015G23KT 10SM OVC014 M08/M11 A2943 RMK AO1
Loading
Personal Weather Stations






























Interactive Weather Map New forecast layout! Learn more

10-Day Weather Forecast

Advertisements
Track Severe Weather on mobile